Time;durP1;ratioP1;P1;durP2;ratioP2;P2;SDS_P1;SDS_P2;PMS_P1;PMS_P2;Temp;Humidity;BMP_temperature;BMP_pressure;BME280_temperature;BME280_humidity;BME280_pressure;Samples;Min_cycle;Max_cycle;Signal;HPM_P1;HPM_P2
2023/01/29 00:00:35;;;;;;;34.23;14.20;;;;;;;-2.05;83.25;100699.95;124920;1102;104166;-81
2023/01/29 00:03:26;;;;;;;31.37;13.57;;;;;;;-2.05;82.70;100687.98;124918;1102;104268;-83
2023/01/29 00:05:57;;;;;;;33.65;13.80;;;;;;;-2.03;82.80;100693.27;124800;1101;102176;-80
2023/01/29 00:08:29;;;;;;;35.37;14.17;;;;;;;-2.04;83.44;100692.38;124872;1102;104213;-85
2023/01/29 00:11:04;;;;;;;33.90;13.20;;;;;;;-2.03;83.01;100690.69;124883;1102;102144;-81
2023/01/29 00:13:35;;;;;;;34.43;15.53;;;;;;;-2.02;83.28;100693.40;124905;1102;101820;-81
2023/01/29 00:16:07;;;;;;;32.43;14.40;;;;;;;-2.03;83.69;100696.73;125489;1099;102261;-83
2023/01/29 00:18:41;;;;;;;36.37;13.87;;;;;;;-2.01;83.04;100694.30;125619;1098;102243;-84
2023/01/29 00:21:14;;;;;;;35.88;14.63;;;;;;;-2.01;84.03;100687.50;125520;1099;102074;-81
2023/01/29 00:23:45;;;;;;;32.63;13.20;;;;;;;-2.01;83.48;100692.64;125514;1099;101906;-82
2023/01/29 00:26:17;;;;;;;37.73;16.20;;;;;;;-2.00;83.23;100693.54;125475;1099;104303;-84
2023/01/29 00:28:49;;;;;;;35.07;15.20;;;;;;;-2.00;83.14;100693.54;125563;1099;101907;-84
2023/01/29 00:31:22;;;;;;;34.53;15.97;;;;;;;-2.00;83.71;100693.54;124912;1099;101839;-86
2023/01/29 00:33:54;;;;;;;28.80;13.00;;;;;;;-2.01;83.76;100690.08;124969;1099;101977;-83
2023/01/29 00:36:26;;;;;;;33.83;14.53;;;;;;;-1.99;83.19;100691.09;124903;1099;102782;-80
2023/01/29 00:39:01;;;;;;;34.27;14.83;;;;;;;-1.98;83.75;100689.42;125099;1099;102080;-81
2023/01/29 00:49:57;;;;;;;35.13;15.27;;;;;;;-1.95;83.28;100699.98;124826;1099;104209;-85
2023/01/29 00:52:29;;;;;;;35.30;14.70;;;;;;;-1.93;84.00;100702.69;125511;1099;104242;-80
2023/01/29 00:55:01;;;;;;;37.03;15.77;;;;;;;-1.94;83.00;100703.48;125536;1098;104274;-82
2023/01/29 00:57:34;;;;;;;35.73;15.57;;;;;;;-1.92;83.24;100702.82;125237;1099;102080;-81
2023/01/29 01:00:08;;;;;;;32.20;14.30;;;;;;;-1.91;82.91;100704.64;125155;1099;104073;-82
2023/01/29 01:05:31;;;;;;;37.17;15.50;;;;;;;-1.90;83.08;100698.73;125459;1099;102105;-80
2023/01/29 01:08:02;;;;;;;35.13;15.40;;;;;;;-1.89;83.73;100695.38;125491;1099;104285;-82
2023/01/29 01:10:34;;;;;;;39.23;16.17;;;;;;;-1.88;82.53;100698.88;125502;1099;104699;-84
2023/01/29 01:13:08;;;;;;;34.10;15.37;;;;;;;-1.87;82.89;100705.80;124993;1099;104211;-80
2023/01/29 01:15:40;;;;;;;36.30;16.40;;;;;;;-1.88;83.42;100702.34;125542;1099;102265;-84
2023/01/29 01:18:14;;;;;;;39.47;15.03;;;;;;;-1.89;83.43;100700.52;125473;1099;104278;-81
2023/01/29 01:20:49;;;;;;;35.03;14.87;;;;;;;-1.89;82.33;100703.09;125489;1099;104214;-84
2023/01/29 01:23:21;;;;;;;34.00;15.73;;;;;;;-1.88;82.42;100693.73;125532;1099;104252;-79
2023/01/29 01:25:52;;;;;;;31.77;13.03;;;;;;;-1.89;82.27;100700.52;124969;1099;104428;-85
2023/01/29 01:28:23;;;;;;;36.77;16.07;;;;;;;-1.86;83.11;100694.75;125429;1099;104268;-83
2023/01/29 01:30:55;;;;;;;33.57;14.27;;;;;;;-1.86;82.70;100697.33;125473;1098;104163;-81
2023/01/29 01:33:26;;;;;;;34.83;15.47;;;;;;;-1.87;82.95;100686.15;125585;1099;104220;-80
2023/01/29 01:36:01;;;;;;;34.50;15.10;;;;;;;-1.85;83.68;100688.86;125509;1097;104166;-78
2023/01/29 01:38:32;;;;;;;35.07;14.67;;;;;;;-1.85;82.75;100688.86;124890;1102;104399;-80
2023/01/29 01:41:03;;;;;;;36.27;15.00;;;;;;;-1.84;83.43;100690.64;124815;1099;101912;-79
2023/01/29 01:46:42;;;;;;;33.97;13.03;;;;;;;-1.84;81.96;100688.06;124949;1102;104194;-84
2023/01/29 01:49:20;;;;;;;37.70;15.47;;;;;;;-1.83;82.21;100684.73;124705;1102;104169;-85
2023/01/29 01:51:57;;;;;;;33.20;15.87;;;;;;;-1.84;82.68;100690.64;124624;1105;104261;-80
2023/01/29 01:54:32;;;;;;;32.97;13.00;;;;;;;-1.85;82.38;100684.60;124729;1105;104409;-84
2023/01/29 01:57:08;;;;;;;;;;;;;;;-1.84;82.65;100695.78;124690;1105;102054;-86
2023/01/29 01:59:40;;;;;;;36.87;14.13;;;;;;;-1.84;82.78;100688.06;124667;1105;104287;-84
2023/01/29 02:10:44;;;;;;;34.57;15.00;;;;;;;-1.85;82.53;100705.18;124631;1105;104242;-84
2023/01/29 02:13:17;;;;;;;37.40;16.57;;;;;;;-1.85;82.79;100696.58;124745;1102;104140;-80
2023/01/29 02:15:48;;;;;;;36.90;15.35;;;;;;;-1.85;82.41;100702.61;124717;1102;104195;-80
2023/01/29 02:18:21;;;;;;;36.80;15.17;;;;;;;-1.84;82.59;100703.50;124750;1102;104194;-84
2023/01/29 02:21:05;;;;;;;31.77;13.20;;;;;;;-1.85;82.77;100705.18;124667;1102;104244;-86
2023/01/29 02:24:12;;;;;;;32.03;14.05;;;;;;;-1.85;82.96;100705.18;124692;1102;104302;-80
2023/01/29 02:26:55;;;;;;;30.90;13.10;;;;;;;-1.84;82.13;100716.36;124655;1102;102051;-87
2023/01/29 02:29:34;;;;;;;33.67;13.60;;;;;;;-1.86;81.97;100710.19;124700;1102;102037;-82
2023/01/29 02:32:16;;;;;;;34.60;15.33;;;;;;;-1.86;82.24;100712.77;124759;1102;101838;-80
2023/01/29 02:37:55;;;;;;;32.27;12.73;;;;;;;-1.85;82.82;100709.44;124688;1102;104227;-82
2023/01/29 02:40:35;;;;;;;36.37;15.03;;;;;;;-1.85;82.45;100714.58;124652;1105;102284;-81
2023/01/29 02:43:24;;;;;;;34.27;14.37;;;;;;;-1.85;82.54;100719.72;124665;1105;104227;-80
2023/01/29 02:46:04;;;;;;;33.90;14.07;;;;;;;-1.87;82.37;100717.02;124702;1102;103163;-79
2023/01/29 02:48:44;;;;;;;33.30;14.37;;;;;;;-1.88;82.46;100722.02;124746;1105;102041;-82
2023/01/29 02:51:21;;;;;;;34.53;14.23;;;;;;;-1.88;82.08;100719.45;124618;1105;101906;-82
2023/01/29 02:53:59;;;;;;;31.57;12.70;;;;;;;-1.89;81.78;100725.35;124739;1105;102342;-84
2023/01/29 02:56:38;;;;;;;33.80;14.90;;;;;;;-1.89;82.44;100728.81;124654;1105;104166;-82
2023/01/29 02:59:13;;;;;;;32.70;13.23;;;;;;;-1.89;82.37;100727.92;124757;1105;102381;-83
2023/01/29 03:01:48;;;;;;;31.30;13.25;;;;;;;-1.88;81.69;100729.74;124701;1105;104259;-81
2023/01/29 03:04:24;;;;;;;32.00;13.70;;;;;;;-1.86;82.26;100730.77;124637;1103;104230;-83
2023/01/29 03:07:01;;;;;;;32.90;13.77;;;;;;;-1.85;82.75;100737.73;124719;1105;104262;-84
2023/01/29 03:09:37;;;;;;;32.10;12.90;;;;;;;-1.87;82.67;100729.88;124641;1102;104198;-86
2023/01/29 03:12:27;;;;;;;34.77;13.27;;;;;;;-1.87;81.89;100732.45;124686;1105;104156;-84
2023/01/29 03:15:15;;;;;;;32.67;13.20;;;;;;;-1.85;81.71;100732.59;124716;1105;104354;-81
2023/01/29 03:17:55;;;;;;;31.47;13.07;;;;;;;-1.84;81.49;100729.22;124653;1105;101883;-82
2023/01/29 03:20:30;;;;;;;;;;;;;;;-1.84;82.75;100734.37;124713;1105;101888;-79
2023/01/29 03:23:05;;;;;;;34.73;13.30;;;;;;;-1.85;81.65;100730.91;124760;1102;104176;-84
2023/01/29 03:34:15;;;;;;;30.00;12.40;;;;;;;-1.87;81.53;100740.16;124789;1102;104673;-80
2023/01/29 03:36:54;;;;;;;28.77;12.90;;;;;;;-1.88;81.39;100732.31;124755;1102;104201;-85
2023/01/29 03:39:29;;;;;;;30.23;12.20;;;;;;;-1.88;81.69;100737.45;124666;1103;102717;-82
2023/01/29 03:42:05;;;;;;;31.10;12.67;;;;;;;-1.90;81.59;100746.69;124783;1102;104376;-81
2023/01/29 03:44:47;;;;;;;33.27;13.33;;;;;;;-1.89;82.36;100731.39;124623;1102;102183;-81
2023/01/29 03:47:30;;;;;;;32.70;13.07;;;;;;;-1.89;82.26;100738.22;124685;1103;101844;-82
2023/01/29 03:50:09;;;;;;;33.23;13.03;;;;;;;-1.89;81.60;100749.39;124828;1102;108966;-82
2023/01/29 03:52:46;;;;;;;29.37;12.33;;;;;;;-1.92;81.95;100751.69;124663;1103;101794;-84
2023/01/29 03:55:23;;;;;;;32.45;12.35;;;;;;;-1.92;81.45;100761.09;124770;1105;101964;-85
2023/01/29 03:57:59;;;;;;;35.00;13.63;;;;;;;-1.97;81.84;100747.81;124773;1103;102057;-82
2023/01/29 04:00:38;;;;;;;31.17;12.53;;;;;;;-1.97;81.18;100746.92;124811;1102;102307;-84
2023/01/29 04:03:17;;;;;;;29.10;11.63;;;;;;;-1.99;81.16;100762.22;124664;1102;104233;-83
2023/01/29 04:06:04;;;;;;;31.93;12.20;;;;;;;-2.00;80.85;100763.86;124719;1102;104277;-85
2023/01/29 04:08:41;;;;;;;29.60;11.87;;;;;;;-2.02;81.20;100767.09;124677;1102;102233;-82
2023/01/29 04:11:16;;;;;;;34.07;14.00;;;;;;;-2.02;82.09;100755.12;124697;1105;101967;-81
2023/01/29 04:13:48;;;;;;;30.30;11.50;;;;;;;-2.05;80.91;100772.84;124752;1102;101913;-84
2023/01/29 04:16:27;;;;;;;29.67;12.00;;;;;;;-2.06;82.25;100762.42;124796;1102;104367;-84
2023/01/29 04:19:18;;;;;;;30.47;12.03;;;;;;;-2.08;81.51;100769.11;124683;1102;102278;-83
2023/01/29 04:21:53;;;;;;;29.50;10.60;;;;;;;-2.08;81.01;100771.67;124759;1102;104425;-81
2023/01/29 04:24:24;;;;;;;27.80;11.33;;;;;;;-2.07;82.42;100770.89;124586;1102;104245;-79
2023/01/29 04:27:12;;;;;;;32.37;13.37;;;;;;;-2.05;81.26;100774.53;124684;1102;104306;-81
2023/01/29 04:29:57;;;;;;;31.57;12.27;;;;;;;-2.05;81.50;100775.42;124551;1102;104195;-81
2023/01/29 04:32:32;;;;;;;32.65;12.65;;;;;;;-2.04;82.41;100773.73;124685;1102;102118;-81
2023/01/29 04:35:10;;;;;;;;;;;;;;;-2.03;81.22;100775.55;124754;1102;104316;-82
2023/01/29 04:37:48;;;;;;;31.50;13.20;;;;;;;-2.02;81.73;100769.66;124696;1102;104239;-80
2023/01/29 04:40:26;;;;;;;31.07;12.50;;;;;;;-2.03;81.16;100771.30;124876;1102;102021;-83
2023/01/29 04:43:04;;;;;;;29.93;11.90;;;;;;;-2.01;81.24;100776.59;124969;1102;104271;-81
2023/01/29 04:45:44;;;;;;;27.93;10.83;;;;;;;-2.01;81.62;100777.52;124913;1102;102379;-82
2023/01/29 04:48:22;;;;;;;31.40;12.87;;;;;;;-2.00;81.75;100775.83;124901;1102;104220;-84
2023/01/29 04:51:01;;;;;;;36.17;12.83;;;;;;;-1.99;81.32;100778.55;125439;1099;104235;-80
2023/01/29 04:53:42;;;;;;;31.55;12.15;;;;;;;-1.97;82.33;100781.25;125592;1099;104249;-83
2023/01/29 04:56:21;;;;;;;29.63;12.90;;;;;;;-1.95;81.51;100783.96;125511;1099;101807;-79
2023/01/29 04:58:56;;;;;;;28.80;12.15;;;;;;;-1.94;81.36;100780.63;125526;1098;101849;-82
2023/01/29 05:01:32;;;;;;;30.97;12.60;;;;;;;-1.93;82.01;100778.20;125593;1099;102259;-81
2023/01/29 05:04:06;;;;;;;29.33;12.10;;;;;;;-1.92;82.07;100776.52;125521;1099;104185;-81
2023/01/29 05:06:39;;;;;;;29.97;11.13;;;;;;;-1.92;81.74;100773.95;125540;1099;104172;-82
2023/01/29 05:09:12;;;;;;;33.77;12.87;;;;;;;-1.92;81.71;100784.23;125551;1099;101852;-85
2023/01/29 05:11:45;;;;;;;29.10;12.47;;;;;;;-1.93;80.69;100779.84;125567;1099;103383;-83
2023/01/29 05:14:20;;;;;;;26.33;10.87;;;;;;;-1.91;81.06;100781.80;125564;1098;104229;-85
2023/01/29 05:16:55;;;;;;;26.20;10.77;;;;;;;-1.90;80.78;100796.48;125482;1099;101926;-82
2023/01/29 05:19:26;;;;;;;31.13;11.83;;;;;;;-1.89;81.60;100790.55;125594;1099;104179;-82
2023/01/29 05:21:58;;;;;;;27.37;10.57;;;;;;;-1.90;81.25;100796.48;125561;1099;108893;-80
2023/01/29 05:24:30;;;;;;;30.50;12.30;;;;;;;-1.90;80.98;100791.34;125563;1098;104294;-81
2023/01/29 05:29:50;;;;;;;31.37;11.70;;;;;;;-1.89;80.80;100805.09;125493;1099;102067;-81
2023/01/29 05:32:21;;;;;;;28.60;11.83;;;;;;;-1.89;81.28;100811.13;124961;1099;104258;-85
2023/01/29 05:34:52;;;;;;;31.50;12.03;;;;;;;-1.88;81.30;100807.80;125613;1099;102086;-82
2023/01/29 05:37:24;;;;;;;27.03;11.13;;;;;;;-1.88;81.44;100807.80;125550;1098;104300;-81
2023/01/29 05:40:01;;;;;;;30.90;11.83;;;;;;;-1.88;80.59;100805.23;125579;1099;101886;-83
2023/01/29 05:42:32;;;;;;;27.33;11.00;;;;;;;-1.87;81.12;100811.27;125468;1099;101903;-84
2023/01/29 05:45:04;;;;;;;26.77;10.57;;;;;;;-1.87;80.59;100811.27;125499;1099;104121;-80
2023/01/29 05:47:35;;;;;;;32.10;12.53;;;;;;;-1.87;80.34;100806.13;125514;1099;104232;-82
2023/01/29 05:50:08;;;;;;;27.60;10.97;;;;;;;-1.86;80.24;100821.70;125664;1098;104648;-80
2023/01/29 05:52:39;;;;;;;26.93;11.80;;;;;;;-1.87;80.81;100809.63;124903;1099;118654;-80
2023/01/29 05:55:11;;;;;;;31.07;13.00;;;;;;;-1.87;80.41;100818.98;125507;1099;104258;-85
2023/01/29 05:57:43;;;;;;;28.60;12.50;;;;;;;-1.87;81.71;100818.98;125635;1097;101781;-81
2023/01/29 06:00:16;;;;;;;29.40;11.43;;;;;;;-1.87;80.58;100821.55;125527;1099;102035;-82
2023/01/29 06:02:47;;;;;;;29.45;12.10;;;;;;;-1.87;80.31;100835.34;125679;1099;104169;-81
2023/01/29 06:05:19;;;;;;;30.77;11.77;;;;;;;-1.87;80.33;100830.20;125563;1099;102025;-78
2023/01/29 06:07:50;;;;;;;31.57;11.83;;;;;;;-1.87;80.87;100834.42;125506;1099;102188;-84
2023/01/29 06:10:23;;;;;;;;;;;;;;;-1.86;80.77;100829.41;125605;1099;104175;-84
2023/01/29 06:12:54;;;;;;;29.43;12.00;;;;;;;-1.86;81.24;100831.98;125508;1099;102543;-82
2023/01/29 06:15:25;;;;;;;27.03;10.37;;;;;;;-1.84;81.41;100844.98;125579;1099;104207;-79
2023/01/29 06:17:57;;;;;;;28.23;11.20;;;;;;;-1.84;81.85;100833.05;125509;1099;104217;-80
2023/01/29 06:20:28;;;;;;;31.40;11.27;;;;;;;-1.79;81.72;100837.69;125563;1099;101848;-79
2023/01/29 06:23:00;;;;;;;31.43;11.83;;;;;;;-1.77;81.59;100837.06;125516;1099;104290;-81
2023/01/29 06:25:31;;;;;;;31.25;11.85;;;;;;;-1.73;81.69;100839.16;125578;1099;104214;-85
2023/01/29 06:28:02;;;;;;;27.83;11.70;;;;;;;-1.68;81.73;100843.05;125634;1099;102041;-82
2023/01/29 06:30:33;;;;;;;29.43;12.10;;;;;;;-1.63;81.59;100834.05;125601;1099;101903;-80
2023/01/29 06:33:05;;;;;;;30.67;12.53;;;;;;;-1.58;81.70;100831.89;125588;1098;102648;-81
2023/01/29 06:35:36;;;;;;;26.57;11.30;;;;;;;-1.54;81.79;100844.28;125559;1098;104214;-82
2023/01/29 06:38:07;;;;;;;28.87;11.53;;;;;;;-1.50;81.32;100838.61;125540;1099;102425;-82
2023/01/29 06:40:39;;;;;;;31.40;12.80;;;;;;;-1.47;81.96;100846.61;125567;1099;104338;-82
2023/01/29 06:43:11;;;;;;;30.73;12.63;;;;;;;-1.42;80.83;100844.45;125567;1098;104264;-80
2023/01/29 06:45:48;;;;;;;28.13;11.00;;;;;;;-1.39;81.14;100844.72;125517;1099;102366;-85
2023/01/29 06:48:20;;;;;;;27.67;11.20;;;;;;;-1.36;81.72;100844.09;125513;1098;104195;-79
2023/01/29 06:50:53;;;;;;;25.40;10.50;;;;;;;-1.34;80.77;100837.41;125450;1099;104169;-82
2023/01/29 06:53:25;;;;;;;27.25;11.28;;;;;;;-1.32;81.42;100838.46;125663;1098;102105;-81
2023/01/29 06:55:56;;;;;;;28.70;12.00;;;;;;;-1.29;81.34;100847.35;125562;1099;104235;-81
2023/01/29 06:58:27;;;;;;;29.20;10.20;;;;;;;-1.27;80.32;100843.23;125575;1099;102063;-80
2023/01/29 07:01:04;;;;;;;29.27;11.67;;;;;;;-1.22;81.15;100841.06;125575;1099;101897;-82
2023/01/29 07:03:36;;;;;;;27.97;11.33;;;;;;;-1.18;81.44;100832.84;125472;1099;102670;-80
2023/01/29 07:06:08;;;;;;;27.13;10.53;;;;;;;-1.12;80.74;100841.11;125607;1099;101823;-85
2023/01/29 07:08:40;;;;;;;24.63;9.77;;;;;;;-1.10;81.07;100841.25;125540;1099;101996;-80
2023/01/29 07:11:14;;;;;;;28.40;10.37;;;;;;;-1.02;81.12;100852.22;125487;1099;104313;-82
2023/01/29 07:13:45;;;;;;;30.53;11.17;;;;;;;-0.97;80.57;100841.52;125637;1099;104057;-81
2023/01/29 07:16:17;;;;;;;28.53;11.40;;;;;;;-0.91;80.17;100854.05;125507;1099;102165;-83
2023/01/29 07:18:49;;;;;;;28.27;10.60;;;;;;;-0.83;80.74;100860.76;125481;1099;101905;-80
2023/01/29 07:21:20;;;;;;;28.27;11.90;;;;;;;-0.76;80.57;100855.38;125556;1099;102278;-80
2023/01/29 07:23:51;;;;;;;26.47;10.77;;;;;;;-0.68;80.00;100853.47;125452;1099;102203;-82
2023/01/29 07:26:22;;;;;;;28.93;11.70;;;;;;;-0.63;79.90;100865.06;125557;1099;102048;-85
2023/01/29 07:28:54;;;;;;;27.30;11.27;;;;;;;-0.55;80.60;100866.65;125500;1099;104211;-80
2023/01/29 07:31:25;;;;;;;27.37;10.37;;;;;;;-0.48;79.71;100860.33;125484;1099;104204;-83
2023/01/29 07:33:56;;;;;;;25.47;9.97;;;;;;;-0.44;79.74;100869.22;125467;1098;104182;-84
2023/01/29 07:36:28;;;;;;;31.10;12.30;;;;;;;-0.39;79.58;100860.19;125403;1099;104245;-81
2023/01/29 07:38:59;;;;;;;29.77;12.23;;;;;;;-0.33;79.46;100850.39;125567;1099;102063;-81
2023/01/29 07:41:33;;;;;;;29.80;11.33;;;;;;;-0.27;79.05;100866.39;125552;1099;101846;-77
2023/01/29 07:44:07;;;;;;;26.10;11.50;;;;;;;-0.22;80.12;100856.46;125151;1099;102300;-80
2023/01/29 07:46:38;;;;;;;;;;;;;;;-0.16;79.83;100864.72;125671;1097;102003;-82
2023/01/29 07:49:17;;;;;;;24.20;9.57;;;;;;;-0.14;78.63;100880.32;125461;1099;102405;-79
2023/01/29 07:51:48;;;;;;;28.33;9.83;;;;;;;-0.15;78.19;100863.95;125497;1099;104220;-77
2023/01/29 07:54:20;;;;;;;28.33;10.80;;;;;;;-0.11;78.73;100873.77;125450;1099;104262;-81
2023/01/29 07:56:51;;;;;;;25.93;9.70;;;;;;;-0.08;79.06;100884.34;125463;1099;104172;-82
2023/01/29 07:59:22;;;;;;;30.40;11.97;;;;;;;-0.03;78.85;100864.09;125585;1099;102118;-82
2023/01/29 08:01:53;;;;;;;25.90;10.20;;;;;;;0.01;78.32;100867.82;125430;1099;102049;-82
2023/01/29 08:04:25;;;;;;;22.13;8.10;;;;;;;-0.01;77.82;100862.53;125583;1098;104060;-76
2023/01/29 08:06:56;;;;;;;24.97;9.60;;;;;;;0.02;77.85;100875.69;125447;1099;101843;-81
2023/01/29 08:09:27;;;;;;;27.73;10.43;;;;;;;0.04;77.92;100874.13;125590;1098;104223;-82
2023/01/29 08:11:59;;;;;;;26.77;11.03;;;;;;;0.07;79.17;100873.50;125515;1099;101976;-79
2023/01/29 08:14:30;;;;;;;28.50;10.77;;;;;;;0.11;78.29;100872.95;125431;1099;104261;-83
2023/01/29 08:17:01;;;;;;;28.13;11.33;;;;;;;0.14;78.77;100873.21;125247;1099;102087;-82
2023/01/29 08:19:33;;;;;;;26.00;10.37;;;;;;;0.12;77.60;100874.77;125494;1098;101916;-83
2023/01/29 08:22:05;;;;;;;24.00;9.77;;;;;;;0.14;77.53;100879.30;125539;1099;104220;-81
2023/01/29 08:24:36;;;;;;;24.80;10.30;;;;;;;0.18;77.69;100875.28;125527;1099;103119;-80
2023/01/29 08:27:07;;;;;;;26.37;10.50;;;;;;;0.19;78.19;100869.36;125474;1099;102871;-81
2023/01/29 08:29:38;;;;;;;27.23;9.80;;;;;;;0.13;76.73;100867.16;125440;1099;102068;-80
2023/01/29 08:32:12;;;;;;;25.87;9.97;;;;;;;0.17;77.62;100868.30;125528;1099;102019;-86
2023/01/29 08:34:43;;;;;;;27.42;9.98;;;;;;;0.18;77.13;100870.12;125477;1099;102324;-82
2023/01/29 08:37:14;;;;;;;25.73;10.80;;;;;;;0.20;77.52;100868.56;125549;1099;104380;-80
2023/01/29 08:39:45;;;;;;;26.83;9.83;;;;;;;0.27;76.31;100881.20;125393;1099;104091;-83
2023/01/29 08:42:17;;;;;;;24.03;10.13;;;;;;;0.44;76.67;100872.27;125589;1099;102582;-79
2023/01/29 08:44:48;;;;;;;23.90;10.15;;;;;;;0.65;77.02;100872.21;125529;1099;101884;-81
2023/01/29 08:47:19;;;;;;;25.30;9.67;;;;;;;0.80;75.73;100886.38;125555;1099;104172;-85
2023/01/29 08:49:50;;;;;;;23.83;9.13;;;;;;;0.92;75.95;100867.45;125370;1099;103217;-83
2023/01/29 08:52:22;;;;;;;26.70;10.63;;;;;;;0.98;76.53;100853.36;125409;1098;102111;-79
2023/01/29 08:54:53;;;;;;;26.67;10.83;;;;;;;0.97;74.83;100859.30;125489;1099;102815;-82
2023/01/29 08:57:24;;;;;;;23.57;10.03;;;;;;;0.94;74.56;100859.05;125478;1099;104098;-80
2023/01/29 08:59:55;;;;;;;23.67;10.13;;;;;;;0.99;74.97;100854.25;124881;1099;104265;-82
2023/01/29 09:02:27;;;;;;;24.40;9.57;;;;;;;1.04;74.45;100853.85;125453;1099;102697;-75
2023/01/29 09:04:58;;;;;;;21.87;8.60;;;;;;;1.04;74.20;100850.34;125568;1099;104156;-81
2023/01/29 09:07:30;;;;;;;25.17;10.37;;;;;;;1.04;74.15;100859.02;125532;1099;102157;-86
2023/01/29 09:10:01;;;;;;;24.97;10.00;;;;;;;1.05;74.08;100862.50;125456;1098;104169;-83
2023/01/29 09:12:33;;;;;;;23.70;9.60;;;;;;;1.10;74.01;100855.11;125544;1099;102012;-79
2023/01/29 09:15:04;;;;;;;23.93;9.87;;;;;;;1.19;75.21;100854.14;125495;1099;101925;-80
2023/01/29 09:17:35;;;;;;;22.65;8.90;;;;;;;1.22;73.32;100846.63;125549;1099;102557;-80
2023/01/29 09:20:10;;;;;;;21.57;8.47;;;;;;;1.29;73.53;100854.86;125529;1098;104095;-78
2023/01/29 09:22:41;;;;;;;20.30;7.13;;;;;;;1.27;71.42;100851.27;125242;1099;104345;-78
2023/01/29 09:25:13;;;;;;;20.93;8.37;;;;;;;1.30;73.47;100848.92;125580;1099;104182;-76
2023/01/29 09:27:44;;;;;;;22.23;8.37;;;;;;;1.25;72.25;100857.21;125573;1099;102499;-79
2023/01/29 09:30:17;;;;;;;19.77;7.23;;;;;;;1.23;71.28;100858.78;125414;1099;102462;-84
2023/01/29 09:32:48;;;;;;;20.97;8.33;;;;;;;1.29;72.05;100842.83;125482;1098;102084;-77
2023/01/29 09:35:20;;;;;;;19.90;7.90;;;;;;;1.36;72.32;100844.23;125415;1098;104179;-79
2023/01/29 09:37:52;;;;;;;22.77;9.10;;;;;;;1.42;72.86;100845.59;125516;1099;104280;-81
2023/01/29 09:40:30;;;;;;;21.63;8.20;;;;;;;1.42;71.80;100848.19;125532;1099;104217;-82
2023/01/29 09:43:06;;;;;;;20.80;8.40;;;;;;;1.42;71.96;100848.19;125485;1099;104172;-80
2023/01/29 09:45:40;;;;;;;22.60;8.87;;;;;;;1.43;72.25;100862.93;125498;1099;104220;-81
2023/01/29 09:48:11;;;;;;;;;;;;;;;1.44;71.90;100849.20;125554;1099;104198;-85
2023/01/29 09:50:47;;;;;;;21.90;8.93;;;;;;;1.48;72.71;100855.53;125363;1098;101827;-80
2023/01/29 09:53:21;;;;;;;21.27;8.50;;;;;;;1.51;72.97;100847.09;125536;1099;102213;-80
2023/01/29 09:55:58;;;;;;;22.33;8.90;;;;;;;1.54;72.84;100844.73;125525;1099;104261;-81
2023/01/29 09:58:34;;;;;;;22.10;8.90;;;;;;;1.51;72.35;100844.50;125485;1099;104201;-79
2023/01/29 10:01:15;;;;;;;22.07;8.83;;;;;;;1.56;73.28;100843.19;125484;1099;101877;-80
2023/01/29 10:04:01;;;;;;;24.23;9.97;;;;;;;1.59;73.57;100838.22;125512;1099;104175;-80
2023/01/29 10:06:50;;;;;;;21.43;9.27;;;;;;;1.63;73.58;100837.69;125507;1099;104175;-81
2023/01/29 10:09:51;;;;;;;22.87;8.70;;;;;;;1.61;72.64;100844.44;125517;1099;104316;-79
2023/01/29 10:12:36;;;;;;;24.90;9.90;;;;;;;1.58;72.74;100852.85;125586;1099;104191;-80
2023/01/29 10:15:23;;;;;;;22.57;8.83;;;;;;;1.45;72.12;100850.13;125450;1099;104172;-82
2023/01/29 10:18:12;;;;;;;25.20;10.07;;;;;;;1.36;72.92;100842.53;125411;1098;102332;-81
2023/01/29 10:20:58;;;;;;;23.90;9.57;;;;;;;1.36;72.79;100836.48;125555;1099;104188;-85
2023/01/29 10:23:32;;;;;;;27.67;10.47;;;;;;;1.33;73.50;100857.81;125557;1098;101865;-84
2023/01/29 10:26:04;;;;;;;24.93;10.10;;;;;;;1.36;72.89;100834.78;125459;1099;102114;-82
2023/01/29 10:28:41;;;;;;;27.20;10.90;;;;;;;1.53;73.42;100837.78;125520;1099;104217;-79
2023/01/29 10:31:17;;;;;;;24.83;10.33;;;;;;;1.52;72.17;100833.38;125522;1099;101908;-82
2023/01/29 10:33:52;;;;;;;22.60;9.37;;;;;;;1.42;71.58;100832.67;125497;1098;104189;-80
2023/01/29 10:36:28;;;;;;;22.60;9.53;;;;;;;1.39;71.16;100839.30;125440;1099;101858;-83
2023/01/29 10:39:00;;;;;;;25.87;9.90;;;;;;;1.43;71.86;100830.98;125480;1099;102105;-80
2023/01/29 10:41:49;;;;;;;21.90;9.17;;;;;;;1.38;71.24;100835.79;125614;1099;102184;-83
2023/01/29 10:44:29;;;;;;;24.20;9.40;;;;;;;1.34;71.23;100820.84;125548;1098;101996;-80
2023/01/29 10:47:19;;;;;;;22.70;8.73;;;;;;;1.28;71.51;100819.44;125506;1099;101999;-81
2023/01/29 10:50:10;;;;;;;24.20;9.50;;;;;;;1.36;72.05;100827.02;125504;1099;104194;-80
2023/01/29 10:52:56;;;;;;;21.93;8.83;;;;;;;1.43;71.25;100826.73;125505;1099;102124;-82
2023/01/29 10:55:43;;;;;;;24.03;9.33;;;;;;;1.59;72.26;100821.04;125497;1098;101775;-78
2023/01/29 10:58:26;;;;;;;19.80;8.27;;;;;;;1.88;70.21;100814.57;125570;1098;104626;-80
2023/01/29 11:00:58;;;;;;;20.00;7.87;;;;;;;2.01;69.38;100813.83;125524;1098;102272;-82
2023/01/29 11:03:31;;;;;;;21.90;8.20;;;;;;;2.09;69.57;100801.46;124982;1099;104371;-79
2023/01/29 11:06:10;;;;;;;19.13;7.70;;;;;;;2.04;68.04;100807.96;125450;1099;104211;-81
2023/01/29 11:08:51;;;;;;;19.60;7.40;;;;;;;1.97;68.46;100801.44;125458;1099;104300;-80
2023/01/29 11:11:26;;;;;;;19.60;7.50;;;;;;;1.88;69.10;100803.33;125502;1099;104172;-78
2023/01/29 11:14:06;;;;;;;17.80;7.20;;;;;;;1.82;69.06;100806.34;125444;1099;102047;-81
2023/01/29 11:16:45;;;;;;;20.53;7.70;;;;;;;1.82;69.22;100796.00;125447;1099;104291;-78
2023/01/29 11:19:17;;;;;;;19.47;7.80;;;;;;;1.83;70.42;100790.05;125502;1099;102413;-78
2023/01/29 11:21:58;;;;;;;21.40;7.43;;;;;;;1.82;70.08;100795.11;125578;1099;104179;-79
2023/01/29 11:24:30;;;;;;;18.00;7.27;;;;;;;1.72;68.44;100812.52;125644;1099;104182;-81
2023/01/29 11:27:03;;;;;;;19.60;7.70;;;;;;;1.77;69.26;100792.17;125531;1099;101846;-81
2023/01/29 11:29:42;;;;;;;18.80;7.43;;;;;;;1.78;69.56;100796.57;125310;1099;107917;-79
2023/01/29 11:32:25;;;;;;;20.43;8.43;;;;;;;1.75;69.78;100785.98;125461;1098;104185;-79
2023/01/29 11:35:01;;;;;;;22.97;8.93;;;;;;;1.71;69.62;100797.77;125384;1099;102311;-80
2023/01/29 11:37:38;;;;;;;20.50;7.87;;;;;;;1.69;69.60;100793.28;125555;1099;102036;-78
2023/01/29 11:40:39;;;;;;;19.10;7.30;;;;;;;1.66;69.89;100804.30;125474;1099;117960;-82
2023/01/29 11:43:28;;;;;;;20.73;7.73;;;;;;;1.60;69.88;100791.78;125344;1098;104345;-79
2023/01/29 11:46:02;;;;;;;21.03;8.40;;;;;;;1.58;70.72;100785.59;125391;1098;104245;-80
2023/01/29 11:48:43;;;;;;;18.82;7.78;;;;;;;1.60;70.31;100793.48;125433;1099;104191;-79
2023/01/29 11:51:23;;;;;;;22.20;8.97;;;;;;;1.64;71.19;100790.35;125417;1099;102236;-77
2023/01/29 11:53:57;;;;;;;22.70;8.13;;;;;;;1.58;70.02;100807.98;125453;1099;104306;-81
2023/01/29 11:56:29;;;;;;;;;;;;;;;1.54;69.92;100791.34;125613;1098;104270;-78
2023/01/29 11:59:03;;;;;;;23.10;9.07;;;;;;;1.58;70.81;100802.81;125466;1099;102896;-81
2023/01/29 12:01:36;;;;;;;;;;;;;;;1.62;70.57;100791.89;125575;1099;104176;-79
2023/01/29 12:04:19;;;;;;;24.30;8.77;;;;;;;1.63;70.60;100791.12;124740;1099;101893;-80
2023/01/29 12:06:52;;;;;;;21.30;8.03;;;;;;;1.65;70.32;100799.00;124968;1099;104278;-79
2023/01/29 12:09:27;;;;;;;21.23;8.73;;;;;;;1.65;70.17;100791.23;125481;1099;104195;-80
2023/01/29 12:12:26;;;;;;;20.30;7.87;;;;;;;1.64;69.82;100790.35;125454;1099;104319;-77
2023/01/29 12:15:25;;;;;;;20.20;7.90;;;;;;;1.65;69.48;100786.95;125477;1098;101879;-79